Terminal Aerodrome Forecast
Issued by NWS

Home | Current Version | Previous Version | Text Only | Print | Product List | Glossary On
Versions: 1 2 3 4 5 6 7 8 9 10 11 12 13 14 15 16 17
672
FTUS42 KGSP 121720
TAFGMU
TAF
KGMU 121720Z 1218/1318 06006KT P6SM FEW011 BKN070
      TEMPO 1218/1219 SCT011 OVC070
     FM122100 24006KT P6SM BKN060
     FM122200 25007KT P6SM SCT200
     FM130500 30006KT P6SM FEW250
     FM130900 34006KT P6SM FEW250
     FM131500 35010KT P6SM FEW250=

USA.gov is the U.S. government's official web portal to all federal, state and local government web resources and services.